sensor_id;sensor_type;location;lat;lon;timestamp;temperature;humidity
12123;DHT22;6125;59.628;17.852;2022-12-29T00:01:32;0.50;99.90
12123;DHT22;6125;59.628;17.852;2022-12-29T00:03:59;0.50;99.90
12123;DHT22;6125;59.628;17.852;2022-12-29T00:06:27;0.50;99.90
12123;DHT22;6125;59.628;17.852;2022-12-29T00:08:55;0.50;99.90
12123;DHT22;6125;59.628;17.852;2022-12-29T00:11:23;0.50;99.90
12123;DHT22;6125;59.628;17.852;2022-12-29T00:13:51;0.50;99.90
12123;DHT22;6125;59.628;17.852;2022-12-29T00:16:37;0.50;99.90
12123;DHT22;6125;59.628;17.852;2022-12-29T00:19:04;0.50;99.90
12123;DHT22;6125;59.628;17.852;2022-12-29T00:21:31;0.50;99.90
12123;DHT22;6125;59.628;17.852;2022-12-29T00:24:20;0.50;99.90
12123;DHT22;6125;59.628;17.852;2022-12-29T00:27:11;0.50;99.90
12123;DHT22;6125;59.628;17.852;2022-12-29T00:29:56;0.50;99.90
12123;DHT22;6125;59.628;17.852;2022-12-29T00:32:40;0.50;99.90
12123;DHT22;6125;59.628;17.852;2022-12-29T00:35:27;0.50;99.90
12123;DHT22;6125;59.628;17.852;2022-12-29T00:37:57;0.50;99.90
12123;DHT22;6125;59.628;17.852;2022-12-29T00:40:45;0.50;99.90
12123;DHT22;6125;59.628;17.852;2022-12-29T00:43:29;0.60;99.90
12123;DHT22;6125;59.628;17.852;2022-12-29T00:46:13;0.60;99.90
12123;DHT22;6125;59.628;17.852;2022-12-29T00:48:41;0.60;99.90
12123;DHT22;6125;59.628;17.852;2022-12-29T00:51:25;0.60;99.90
12123;DHT22;6125;59.628;17.852;2022-12-29T00:53:52;0.60;99.90
12123;DHT22;6125;59.628;17.852;2022-12-29T00:56:20;0.60;99.90
12123;DHT22;6125;59.628;17.852;2022-12-29T00:58:47;0.60;99.90
12123;DHT22;6125;59.628;17.852;2022-12-29T01:01:14;0.60;99.90
12123;DHT22;6125;59.628;17.852;2022-12-29T01:03:41;0.60;99.90
12123;DHT22;6125;59.628;17.852;2022-12-29T01:06:10;0.60;99.90
12123;DHT22;6125;59.628;17.852;2022-12-29T01:08:37;0.70;99.90
12123;DHT22;6125;59.628;17.852;2022-12-29T01:11:06;0.70;99.90
12123;DHT22;6125;59.628;17.852;2022-12-29T01:13:34;0.70;99.90
12123;DHT22;6125;59.628;17.852;2022-12-29T01:16:03;0.70;99.90
12123;DHT22;6125;59.628;17.852;2022-12-29T01:18:30;0.70;99.90
12123;DHT22;6125;59.628;17.852;2022-12-29T01:21:00;0.70;99.90
12123;DHT22;6125;59.628;17.852;2022-12-29T01:23:28;0.70;99.90
12123;DHT22;6125;59.628;17.852;2022-12-29T01:25:56;0.70;99.90
12123;DHT22;6125;59.628;17.852;2022-12-29T01:28:23;0.70;99.90
12123;DHT22;6125;59.628;17.852;2022-12-29T01:30:53;0.70;99.90
12123;DHT22;6125;59.628;17.852;2022-12-29T01:33:20;0.70;99.90
12123;DHT22;6125;59.628;17.852;2022-12-29T01:35:47;0.70;99.90
12123;DHT22;6125;59.628;17.852;2022-12-29T01:38:14;0.70;99.90
12123;DHT22;6125;59.628;17.852;2022-12-29T01:40:45;0.70;99.90
12123;DHT22;6125;59.628;17.852;2022-12-29T01:43:13;0.70;99.90
12123;DHT22;6125;59.628;17.852;2022-12-29T01:45:43;0.70;99.90
12123;DHT22;6125;59.628;17.852;2022-12-29T01:48:13;0.70;99.90
12123;DHT22;6125;59.628;17.852;2022-12-29T01:50:45;0.70;99.90
12123;DHT22;6125;59.628;17.852;2022-12-29T01:53:16;0.70;99.90
12123;DHT22;6125;59.628;17.852;2022-12-29T01:55:46;0.70;99.90
12123;DHT22;6125;59.628;17.852;2022-12-29T01:58:17;0.80;99.90
12123;DHT22;6125;59.628;17.852;2022-12-29T02:00:44;0.80;99.90
12123;DHT22;6125;59.628;17.852;2022-12-29T02:03:13;0.80;99.90
12123;DHT22;6125;59.628;17.852;2022-12-29T02:05:46;0.80;99.90
12123;DHT22;6125;59.628;17.852;2022-12-29T02:08:14;0.80;99.90
12123;DHT22;6125;59.628;17.852;2022-12-29T02:10:42;0.80;99.90
12123;DHT22;6125;59.628;17.852;2022-12-29T02:13:10;0.80;99.90
12123;DHT22;6125;59.628;17.852;2022-12-29T02:15:52;0.80;99.90
12123;DHT22;6125;59.628;17.852;2022-12-29T02:18:33;0.80;99.90
12123;DHT22;6125;59.628;17.852;2022-12-29T02:24:46;0.80;99.90
12123;DHT22;6125;59.628;17.852;2022-12-29T02:27:40;0.80;99.90
12123;DHT22;6125;59.628;17.852;2022-12-29T02:30:33;0.80;99.90
12123;DHT22;6125;59.628;17.852;2022-12-29T02:33:07;0.80;99.90
12123;DHT22;6125;59.628;17.852;2022-12-29T02:35:44;0.90;99.90
12123;DHT22;6125;59.628;17.852;2022-12-29T02:38:20;0.90;99.90
12123;DHT22;6125;59.628;17.852;2022-12-29T02:40:54;0.90;99.90
12123;DHT22;6125;59.628;17.852;2022-12-29T02:43:25;0.90;99.90
12123;DHT22;6125;59.628;17.852;2022-12-29T02:45:58;0.90;99.90
12123;DHT22;6125;59.628;17.852;2022-12-29T02:48:29;0.90;99.90
12123;DHT22;6125;59.628;17.852;2022-12-29T02:51:00;0.90;99.90
12123;DHT22;6125;59.628;17.852;2022-12-29T02:53:29;1.00;99.90
12123;DHT22;6125;59.628;17.852;2022-12-29T02:56:14;1.00;99.90
12123;DHT22;6125;59.628;17.852;2022-12-29T02:58:41;1.10;99.90
12123;DHT22;6125;59.628;17.852;2022-12-29T03:01:21;1.10;99.90
12123;DHT22;6125;59.628;17.852;2022-12-29T03:04:04;1.10;99.90
12123;DHT22;6125;59.628;17.852;2022-12-29T03:06:43;1.20;99.90
12123;DHT22;6125;59.628;17.852;2022-12-29T03:09:24;1.20;99.90
12123;DHT22;6125;59.628;17.852;2022-12-29T03:11:58;1.20;99.90
12123;DHT22;6125;59.628;17.852;2022-12-29T03:14:39;1.30;99.90
12123;DHT22;6125;59.628;17.852;2022-12-29T03:17:33;1.30;99.90
12123;DHT22;6125;59.628;17.852;2022-12-29T03:20:06;1.30;99.90
12123;DHT22;6125;59.628;17.852;2022-12-29T03:22:39;1.30;99.90
12123;DHT22;6125;59.628;17.852;2022-12-29T03:25:10;1.30;99.90
12123;DHT22;6125;59.628;17.852;2022-12-29T03:27:42;1.40;99.90
12123;DHT22;6125;59.628;17.852;2022-12-29T03:30:13;1.40;99.90
12123;DHT22;6125;59.628;17.852;2022-12-29T03:32:44;1.40;99.90
12123;DHT22;6125;59.628;17.852;2022-12-29T03:35:15;1.50;99.90
12123;DHT22;6125;59.628;17.852;2022-12-29T03:37:51;1.50;99.90
12123;DHT22;6125;59.628;17.852;2022-12-29T03:40:21;1.50;99.90
12123;DHT22;6125;59.628;17.852;2022-12-29T03:42:50;1.50;99.90
12123;DHT22;6125;59.628;17.852;2022-12-29T03:45:17;1.50;99.90
12123;DHT22;6125;59.628;17.852;2022-12-29T03:47:46;1.60;99.90
12123;DHT22;6125;59.628;17.852;2022-12-29T03:50:14;1.60;99.90
12123;DHT22;6125;59.628;17.852;2022-12-29T03:52:41;1.60;99.90
12123;DHT22;6125;59.628;17.852;2022-12-29T03:55:10;1.60;99.90
12123;DHT22;6125;59.628;17.852;2022-12-29T03:57:37;1.70;99.90
12123;DHT22;6125;59.628;17.852;2022-12-29T04:00:06;1.70;99.90
12123;DHT22;6125;59.628;17.852;2022-12-29T04:02:33;1.70;99.90
12123;DHT22;6125;59.628;17.852;2022-12-29T04:05:02;1.70;99.90
12123;DHT22;6125;59.628;17.852;2022-12-29T04:07:29;1.70;99.90
12123;DHT22;6125;59.628;17.852;2022-12-29T04:09:56;1.80;99.90
12123;DHT22;6125;59.628;17.852;2022-12-29T04:12:23;1.80;99.90
12123;DHT22;6125;59.628;17.852;2022-12-29T04:14:54;1.80;99.90
12123;DHT22;6125;59.628;17.852;2022-12-29T04:17:21;1.80;99.90
12123;DHT22;6125;59.628;17.852;2022-12-29T04:19:48;1.80;99.90
12123;DHT22;6125;59.628;17.852;2022-12-29T04:22:16;1.80;99.90
12123;DHT22;6125;59.628;17.852;2022-12-29T04:24:43;1.80;99.90
12123;DHT22;6125;59.628;17.852;2022-12-29T04:27:10;1.80;99.90
12123;DHT22;6125;59.628;17.852;2022-12-29T04:29:37;1.80;99.90
12123;DHT22;6125;59.628;17.852;2022-12-29T04:32:06;1.80;99.90
12123;DHT22;6125;59.628;17.852;2022-12-29T04:34:33;1.80;99.90
12123;DHT22;6125;59.628;17.852;2022-12-29T04:37:00;1.90;99.90
12123;DHT22;6125;59.628;17.852;2022-12-29T04:39:28;1.90;99.90
12123;DHT22;6125;59.628;17.852;2022-12-29T04:41:55;2.00;99.90
12123;DHT22;6125;59.628;17.852;2022-12-29T04:44:22;2.00;99.90
12123;DHT22;6125;59.628;17.852;2022-12-29T04:46:49;2.00;99.90
12123;DHT22;6125;59.628;17.852;2022-12-29T04:49:17;2.10;99.90
12123;DHT22;6125;59.628;17.852;2022-12-29T04:51:44;2.10;99.90
12123;DHT22;6125;59.628;17.852;2022-12-29T04:54:11;2.10;99.90
12123;DHT22;6125;59.628;17.852;2022-12-29T04:56:39;2.20;99.90
12123;DHT22;6125;59.628;17.852;2022-12-29T04:59:06;2.10;99.90
12123;DHT22;6125;59.628;17.852;2022-12-29T05:01:33;2.20;99.90
12123;DHT22;6125;59.628;17.852;2022-12-29T05:04:00;2.20;99.90
12123;DHT22;6125;59.628;17.852;2022-12-29T05:06:30;2.20;99.90
12123;DHT22;6125;59.628;17.852;2022-12-29T05:08:57;2.30;99.90
12123;DHT22;6125;59.628;17.852;2022-12-29T05:11:24;2.30;99.90
12123;DHT22;6125;59.628;17.852;2022-12-29T05:13:53;2.30;99.90
12123;DHT22;6125;59.628;17.852;2022-12-29T05:16:20;2.30;99.90
12123;DHT22;6125;59.628;17.852;2022-12-29T05:18:47;2.40;99.90
12123;DHT22;6125;59.628;17.852;2022-12-29T05:21:14;2.40;99.90
12123;DHT22;6125;59.628;17.852;2022-12-29T05:23:41;2.40;99.90
12123;DHT22;6125;59.628;17.852;2022-12-29T05:26:08;2.40;99.90
12123;DHT22;6125;59.628;17.852;2022-12-29T05:28:35;2.40;99.90
12123;DHT22;6125;59.628;17.852;2022-12-29T05:31:04;2.50;99.90
12123;DHT22;6125;59.628;17.852;2022-12-29T05:33:31;2.50;99.90
12123;DHT22;6125;59.628;17.852;2022-12-29T05:36:04;2.50;99.90
12123;DHT22;6125;59.628;17.852;2022-12-29T05:38:31;2.60;99.90
12123;DHT22;6125;59.628;17.852;2022-12-29T05:40:58;2.60;99.90
12123;DHT22;6125;59.628;17.852;2022-12-29T05:43:25;2.60;99.90
12123;DHT22;6125;59.628;17.852;2022-12-29T05:45:52;2.60;99.90
12123;DHT22;6125;59.628;17.852;2022-12-29T05:48:21;2.60;99.90
12123;DHT22;6125;59.628;17.852;2022-12-29T05:50:49;2.70;99.90
12123;DHT22;6125;59.628;17.852;2022-12-29T05:53:17;2.70;99.90
12123;DHT22;6125;59.628;17.852;2022-12-29T05:55:46;2.70;99.90
12123;DHT22;6125;59.628;17.852;2022-12-29T05:58:13;2.70;99.90
12123;DHT22;6125;59.628;17.852;2022-12-29T06:00:41;2.70;99.90
12123;DHT22;6125;59.628;17.852;2022-12-29T06:03:08;2.70;99.90
12123;DHT22;6125;59.628;17.852;2022-12-29T06:05:36;2.80;99.90
12123;DHT22;6125;59.628;17.852;2022-12-29T06:08:03;2.80;99.90
12123;DHT22;6125;59.628;17.852;2022-12-29T06:10:31;2.80;99.90
12123;DHT22;6125;59.628;17.852;2022-12-29T06:12:58;2.90;99.90
12123;DHT22;6125;59.628;17.852;2022-12-29T06:15:25;2.90;99.90
12123;DHT22;6125;59.628;17.852;2022-12-29T06:17:52;2.90;99.90
12123;DHT22;6125;59.628;17.852;2022-12-29T06:20:19;2.90;99.90
12123;DHT22;6125;59.628;17.852;2022-12-29T06:22:47;2.90;99.90
12123;DHT22;6125;59.628;17.852;2022-12-29T06:25:15;3.00;99.90
12123;DHT22;6125;59.628;17.852;2022-12-29T06:27:42;2.90;99.90
12123;DHT22;6125;59.628;17.852;2022-12-29T06:30:11;3.00;99.90
12123;DHT22;6125;59.628;17.852;2022-12-29T06:32:38;3.00;99.90
12123;DHT22;6125;59.628;17.852;2022-12-29T06:35:06;3.00;99.90
12123;DHT22;6125;59.628;17.852;2022-12-29T06:37:33;3.00;99.90
12123;DHT22;6125;59.628;17.852;2022-12-29T06:40:02;3.10;99.90
12123;DHT22;6125;59.628;17.852;2022-12-29T06:42:29;3.10;99.90
12123;DHT22;6125;59.628;17.852;2022-12-29T06:44:56;3.10;99.90
12123;DHT22;6125;59.628;17.852;2022-12-29T06:47:24;3.10;99.90
12123;DHT22;6125;59.628;17.852;2022-12-29T06:49:51;3.10;99.90
12123;DHT22;6125;59.628;17.852;2022-12-29T06:52:18;3.10;99.90
12123;DHT22;6125;59.628;17.852;2022-12-29T06:54:45;3.10;99.90
12123;DHT22;6125;59.628;17.852;2022-12-29T06:57:14;3.10;99.90
12123;DHT22;6125;59.628;17.852;2022-12-29T06:59:41;3.20;99.90
12123;DHT22;6125;59.628;17.852;2022-12-29T07:02:10;3.20;99.90
12123;DHT22;6125;59.628;17.852;2022-12-29T07:04:37;3.20;99.90
12123;DHT22;6125;59.628;17.852;2022-12-29T07:07:04;3.20;99.90
12123;DHT22;6125;59.628;17.852;2022-12-29T07:09:31;3.20;99.90
12123;DHT22;6125;59.628;17.852;2022-12-29T07:11:58;3.20;99.90
12123;DHT22;6125;59.628;17.852;2022-12-29T07:14:26;3.20;99.90
12123;DHT22;6125;59.628;17.852;2022-12-29T07:16:54;3.20;99.90
12123;DHT22;6125;59.628;17.852;2022-12-29T07:19:21;3.20;99.90
12123;DHT22;6125;59.628;17.852;2022-12-29T07:21:48;3.30;99.90
12123;DHT22;6125;59.628;17.852;2022-12-29T07:24:15;3.30;99.90
12123;DHT22;6125;59.628;17.852;2022-12-29T07:26:42;3.30;99.90
12123;DHT22;6125;59.628;17.852;2022-12-29T07:29:09;3.30;99.90
12123;DHT22;6125;59.628;17.852;2022-12-29T07:31:37;3.30;99.90
12123;DHT22;6125;59.628;17.852;2022-12-29T07:34:04;3.30;99.90
12123;DHT22;6125;59.628;17.852;2022-12-29T07:36:32;3.30;99.90
12123;DHT22;6125;59.628;17.852;2022-12-29T07:38:59;3.30;99.90
12123;DHT22;6125;59.628;17.852;2022-12-29T07:41:26;3.30;99.90
12123;DHT22;6125;59.628;17.852;2022-12-29T07:43:53;3.30;99.90
12123;DHT22;6125;59.628;17.852;2022-12-29T07:46:20;3.40;99.90
12123;DHT22;6125;59.628;17.852;2022-12-29T07:48:48;3.40;99.90
12123;DHT22;6125;59.628;17.852;2022-12-29T07:51:15;3.40;99.90
12123;DHT22;6125;59.628;17.852;2022-12-29T07:53:42;3.40;99.90
12123;DHT22;6125;59.628;17.852;2022-12-29T07:56:09;3.50;99.90
12123;DHT22;6125;59.628;17.852;2022-12-29T07:58:36;3.50;99.90
12123;DHT22;6125;59.628;17.852;2022-12-29T08:01:03;3.50;99.90
12123;DHT22;6125;59.628;17.852;2022-12-29T08:03:31;3.50;99.90
12123;DHT22;6125;59.628;17.852;2022-12-29T08:05:59;3.50;99.90
12123;DHT22;6125;59.628;17.852;2022-12-29T08:08:26;3.50;99.90
12123;DHT22;6125;59.628;17.852;2022-12-29T08:10:54;3.60;99.90
12123;DHT22;6125;59.628;17.852;2022-12-29T08:13:21;3.60;99.90
12123;DHT22;6125;59.628;17.852;2022-12-29T08:15:48;3.60;99.90
12123;DHT22;6125;59.628;17.852;2022-12-29T08:18:17;3.60;99.90
12123;DHT22;6125;59.628;17.852;2022-12-29T08:20:44;3.60;99.90
12123;DHT22;6125;59.628;17.852;2022-12-29T08:23:12;3.60;99.90
12123;DHT22;6125;59.628;17.852;2022-12-29T08:25:39;3.60;99.90
12123;DHT22;6125;59.628;17.852;2022-12-29T08:28:06;3.60;99.90
12123;DHT22;6125;59.628;17.852;2022-12-29T08:30:34;3.60;99.90
12123;DHT22;6125;59.628;17.852;2022-12-29T08:33:01;3.60;99.90
12123;DHT22;6125;59.628;17.852;2022-12-29T08:35:28;3.70;99.90
12123;DHT22;6125;59.628;17.852;2022-12-29T08:37:55;3.70;99.90
12123;DHT22;6125;59.628;17.852;2022-12-29T08:40:23;3.70;99.90
12123;DHT22;6125;59.628;17.852;2022-12-29T08:42:50;3.70;99.90
12123;DHT22;6125;59.628;17.852;2022-12-29T08:45:17;3.70;99.90
12123;DHT22;6125;59.628;17.852;2022-12-29T08:47:44;3.80;99.90
12123;DHT22;6125;59.628;17.852;2022-12-29T08:50:12;3.80;99.90
12123;DHT22;6125;59.628;17.852;2022-12-29T08:52:39;3.80;99.90
12123;DHT22;6125;59.628;17.852;2022-12-29T08:55:06;3.80;99.90
12123;DHT22;6125;59.628;17.852;2022-12-29T08:57:35;3.80;99.90
12123;DHT22;6125;59.628;17.852;2022-12-29T09:00:02;3.80;99.90
12123;DHT22;6125;59.628;17.852;2022-12-29T09:02:29;3.80;99.90
12123;DHT22;6125;59.628;17.852;2022-12-29T09:04:56;3.80;99.90
12123;DHT22;6125;59.628;17.852;2022-12-29T09:07:24;3.80;99.90
12123;DHT22;6125;59.628;17.852;2022-12-29T09:09:51;3.80;99.90
12123;DHT22;6125;59.628;17.852;2022-12-29T09:12:18;3.90;99.90
12123;DHT22;6125;59.628;17.852;2022-12-29T09:14:47;3.90;99.90
12123;DHT22;6125;59.628;17.852;2022-12-29T09:17:14;3.90;99.90
12123;DHT22;6125;59.628;17.852;2022-12-29T09:19:58;3.90;99.90
12123;DHT22;6125;59.628;17.852;2022-12-29T09:22:25;3.90;99.90
12123;DHT22;6125;59.628;17.852;2022-12-29T09:24:52;3.90;99.90
12123;DHT22;6125;59.628;17.852;2022-12-29T09:27:19;3.90;99.90
12123;DHT22;6125;59.628;17.852;2022-12-29T09:29:48;3.90;99.90
12123;DHT22;6125;59.628;17.852;2022-12-29T09:32:15;3.90;99.90
12123;DHT22;6125;59.628;17.852;2022-12-29T09:34:42;3.90;99.90
12123;DHT22;6125;59.628;17.852;2022-12-29T09:37:09;3.90;99.90
12123;DHT22;6125;59.628;17.852;2022-12-29T09:39:36;4.00;99.90
12123;DHT22;6125;59.628;17.852;2022-12-29T09:42:06;4.00;99.90
12123;DHT22;6125;59.628;17.852;2022-12-29T09:44:48;4.00;99.90
12123;DHT22;6125;59.628;17.852;2022-12-29T09:47:17;4.00;99.90
12123;DHT22;6125;59.628;17.852;2022-12-29T09:49:48;4.00;99.90
12123;DHT22;6125;59.628;17.852;2022-12-29T09:52:21;4.00;99.90
12123;DHT22;6125;59.628;17.852;2022-12-29T09:54:53;4.10;99.90
12123;DHT22;6125;59.628;17.852;2022-12-29T09:57:24;4.10;99.90
12123;DHT22;6125;59.628;17.852;2022-12-29T09:59:56;4.10;99.90
12123;DHT22;6125;59.628;17.852;2022-12-29T10:02:36;4.10;99.90
12123;DHT22;6125;59.628;17.852;2022-12-29T10:05:20;4.10;99.90
12123;DHT22;6125;59.628;17.852;2022-12-29T10:07:53;4.10;99.90
12123;DHT22;6125;59.628;17.852;2022-12-29T10:10:32;4.20;99.90
12123;DHT22;6125;59.628;17.852;2022-12-29T10:13:15;4.20;99.90
12123;DHT22;6125;59.628;17.852;2022-12-29T10:15:54;4.20;99.90
12123;DHT22;6125;59.628;17.852;2022-12-29T10:18:41;4.20;99.90
12123;DHT22;6125;59.628;17.852;2022-12-29T10:21:20;4.20;99.90
12123;DHT22;6125;59.628;17.852;2022-12-29T10:23:51;4.20;99.90
12123;DHT22;6125;59.628;17.852;2022-12-29T10:26:20;4.20;99.90
12123;DHT22;6125;59.628;17.852;2022-12-29T10:28:51;4.30;99.90
12123;DHT22;6125;59.628;17.852;2022-12-29T10:31:23;4.30;99.90
12123;DHT22;6125;59.628;17.852;2022-12-29T10:33:53;4.30;99.90
12123;DHT22;6125;59.628;17.852;2022-12-29T10:36:28;4.30;99.90
12123;DHT22;6125;59.628;17.852;2022-12-29T10:39:04;4.30;99.90
12123;DHT22;6125;59.628;17.852;2022-12-29T10:41:38;4.30;99.90
12123;DHT22;6125;59.628;17.852;2022-12-29T10:44:10;4.30;99.90
12123;DHT22;6125;59.628;17.852;2022-12-29T10:46:42;4.30;99.90
12123;DHT22;6125;59.628;17.852;2022-12-29T10:49:14;4.30;99.90
12123;DHT22;6125;59.628;17.852;2022-12-29T10:51:45;4.40;99.90
12123;DHT22;6125;59.628;17.852;2022-12-29T10:54:16;4.40;99.90
12123;DHT22;6125;59.628;17.852;2022-12-29T10:56:49;4.40;99.90
12123;DHT22;6125;59.628;17.852;2022-12-29T10:59:20;4.40;99.90
12123;DHT22;6125;59.628;17.852;2022-12-29T11:01:56;4.50;99.90
12123;DHT22;6125;59.628;17.852;2022-12-29T11:04:35;4.50;99.90
12123;DHT22;6125;59.628;17.852;2022-12-29T11:07:07;4.50;99.90
12123;DHT22;6125;59.628;17.852;2022-12-29T11:09:37;4.50;99.90
12123;DHT22;6125;59.628;17.852;2022-12-29T11:12:19;4.50;99.90
12123;DHT22;6125;59.628;17.852;2022-12-29T11:14:47;4.60;99.90
12123;DHT22;6125;59.628;17.852;2022-12-29T11:17:29;4.60;99.90
12123;DHT22;6125;59.628;17.852;2022-12-29T11:19:56;4.60;99.90
12123;DHT22;6125;59.628;17.852;2022-12-29T11:22:25;4.60;99.90
12123;DHT22;6125;59.628;17.852;2022-12-29T11:24:54;4.60;99.90
12123;DHT22;6125;59.628;17.852;2022-12-29T11:27:23;4.60;99.90
12123;DHT22;6125;59.628;17.852;2022-12-29T11:29:52;4.60;99.90
12123;DHT22;6125;59.628;17.852;2022-12-29T11:32:21;4.60;99.90
12123;DHT22;6125;59.628;17.852;2022-12-29T11:34:50;4.70;99.90
12123;DHT22;6125;59.628;17.852;2022-12-29T11:37:18;4.70;99.90
12123;DHT22;6125;59.628;17.852;2022-12-29T11:39:51;4.70;99.90
12123;DHT22;6125;59.628;17.852;2022-12-29T11:42:24;4.70;99.90
12123;DHT22;6125;59.628;17.852;2022-12-29T11:45:03;4.70;99.90
12123;DHT22;6125;59.628;17.852;2022-12-29T11:47:32;4.70;99.90
12123;DHT22;6125;59.628;17.852;2022-12-29T11:50:03;4.70;99.90
12123;DHT22;6125;59.628;17.852;2022-12-29T11:52:33;4.70;99.90
12123;DHT22;6125;59.628;17.852;2022-12-29T11:55:03;4.70;99.90
12123;DHT22;6125;59.628;17.852;2022-12-29T11:57:33;4.80;99.90
12123;DHT22;6125;59.628;17.852;2022-12-29T12:00:09;4.80;99.90
12123;DHT22;6125;59.628;17.852;2022-12-29T12:02:44;4.80;99.90
12123;DHT22;6125;59.628;17.852;2022-12-29T12:05:22;4.80;99.90
12123;DHT22;6125;59.628;17.852;2022-12-29T12:07:56;4.80;99.90
12123;DHT22;6125;59.628;17.852;2022-12-29T12:10:29;4.80;99.90
12123;DHT22;6125;59.628;17.852;2022-12-29T12:13:02;4.80;99.90
12123;DHT22;6125;59.628;17.852;2022-12-29T12:15:36;4.90;99.90
12123;DHT22;6125;59.628;17.852;2022-12-29T12:18:09;4.90;99.90
12123;DHT22;6125;59.628;17.852;2022-12-29T12:20:49;4.90;99.90
12123;DHT22;6125;59.628;17.852;2022-12-29T12:23:30;4.90;99.90
12123;DHT22;6125;59.628;17.852;2022-12-29T12:26:04;5.00;99.90
12123;DHT22;6125;59.628;17.852;2022-12-29T12:28:42;4.90;99.90
12123;DHT22;6125;59.628;17.852;2022-12-29T12:31:21;4.90;99.90
12123;DHT22;6125;59.628;17.852;2022-12-29T12:33:55;5.00;99.90
12123;DHT22;6125;59.628;17.852;2022-12-29T12:39:28;5.00;99.90
12123;DHT22;6125;59.628;17.852;2022-12-29T12:42:06;5.00;99.90
12123;DHT22;6125;59.628;17.852;2022-12-29T12:44:45;5.00;99.90
12123;DHT22;6125;59.628;17.852;2022-12-29T12:47:34;5.00;99.90
12123;DHT22;6125;59.628;17.852;2022-12-29T12:50:22;5.10;99.90
12123;DHT22;6125;59.628;17.852;2022-12-29T12:56:01;5.10;99.90
12123;DHT22;6125;59.628;17.852;2022-12-29T12:58:35;5.10;99.90
12123;DHT22;6125;59.628;17.852;2022-12-29T13:01:18;5.10;99.90
12123;DHT22;6125;59.628;17.852;2022-12-29T13:04:08;5.10;99.90
12123;DHT22;6125;59.628;17.852;2022-12-29T13:06:43;5.20;99.90
12123;DHT22;6125;59.628;17.852;2022-12-29T13:09:41;5.20;99.90
12123;DHT22;6125;59.628;17.852;2022-12-29T13:12:21;5.20;99.90
12123;DHT22;6125;59.628;17.852;2022-12-29T13:14:59;5.20;99.90
12123;DHT22;6125;59.628;17.852;2022-12-29T13:17:35;5.20;99.90
12123;DHT22;6125;59.628;17.852;2022-12-29T13:20:11;5.20;99.90
12123;DHT22;6125;59.628;17.852;2022-12-29T13:22:50;5.20;99.90
12123;DHT22;6125;59.628;17.852;2022-12-29T13:25:27;5.20;99.90
12123;DHT22;6125;59.628;17.852;2022-12-29T13:28:02;5.20;99.90
12123;DHT22;6125;59.628;17.852;2022-12-29T13:30:36;5.20;99.90
12123;DHT22;6125;59.628;17.852;2022-12-29T13:33:14;5.30;99.90
12123;DHT22;6125;59.628;17.852;2022-12-29T13:35:58;5.20;99.90
12123;DHT22;6125;59.628;17.852;2022-12-29T13:38:30;5.20;99.90
12123;DHT22;6125;59.628;17.852;2022-12-29T13:41:02;5.20;99.90
12123;DHT22;6125;59.628;17.852;2022-12-29T13:43:35;5.20;99.90
12123;DHT22;6125;59.628;17.852;2022-12-29T13:46:07;5.20;99.90
12123;DHT22;6125;59.628;17.852;2022-12-29T13:48:39;5.20;99.90
12123;DHT22;6125;59.628;17.852;2022-12-29T13:51:08;5.20;99.90
12123;DHT22;6125;59.628;17.852;2022-12-29T13:53:42;5.30;99.90
12123;DHT22;6125;59.628;17.852;2022-12-29T13:56:22;5.20;99.90
12123;DHT22;6125;59.628;17.852;2022-12-29T13:58:54;5.20;99.90
12123;DHT22;6125;59.628;17.852;2022-12-29T14:01:28;5.30;99.90
12123;DHT22;6125;59.628;17.852;2022-12-29T14:03:57;5.30;99.90
12123;DHT22;6125;59.628;17.852;2022-12-29T14:06:26;5.30;99.90
12123;DHT22;6125;59.628;17.852;2022-12-29T14:08:55;5.30;99.90
12123;DHT22;6125;59.628;17.852;2022-12-29T14:11:30;5.30;99.90
12123;DHT22;6125;59.628;17.852;2022-12-29T14:13:59;5.30;99.90
12123;DHT22;6125;59.628;17.852;2022-12-29T14:16:37;5.20;99.90
12123;DHT22;6125;59.628;17.852;2022-12-29T14:19:09;5.30;99.90
12123;DHT22;6125;59.628;17.852;2022-12-29T14:21:38;5.30;99.90
12123;DHT22;6125;59.628;17.852;2022-12-29T14:24:41;5.30;99.90
12123;DHT22;6125;59.628;17.852;2022-12-29T14:27:43;5.30;99.90
12123;DHT22;6125;59.628;17.852;2022-12-29T14:33:14;5.30;99.90
12123;DHT22;6125;59.628;17.852;2022-12-29T14:35:43;5.20;99.90
12123;DHT22;6125;59.628;17.852;2022-12-29T14:38:19;5.20;99.90
12123;DHT22;6125;59.628;17.852;2022-12-29T14:40:48;5.30;99.90
12123;DHT22;6125;59.628;17.852;2022-12-29T14:43:22;5.30;99.90
12123;DHT22;6125;59.628;17.852;2022-12-29T14:45:57;5.30;99.90
12123;DHT22;6125;59.628;17.852;2022-12-29T14:48:39;5.30;99.90
12123;DHT22;6125;59.628;17.852;2022-12-29T14:51:21;5.30;99.90
12123;DHT22;6125;59.628;17.852;2022-12-29T14:53:52;5.30;99.90
12123;DHT22;6125;59.628;17.852;2022-12-29T14:56:24;5.30;99.90
12123;DHT22;6125;59.628;17.852;2022-12-29T14:58:53;5.30;99.90
12123;DHT22;6125;59.628;17.852;2022-12-29T15:01:32;5.30;99.90
12123;DHT22;6125;59.628;17.852;2022-12-29T15:04:13;5.30;99.90
12123;DHT22;6125;59.628;17.852;2022-12-29T15:06:42;5.30;99.90
12123;DHT22;6125;59.628;17.852;2022-12-29T15:09:17;5.30;99.90
12123;DHT22;6125;59.628;17.852;2022-12-29T15:11:50;5.30;99.90
12123;DHT22;6125;59.628;17.852;2022-12-29T15:14:38;5.30;99.90
12123;DHT22;6125;59.628;17.852;2022-12-29T15:17:22;5.30;99.90
12123;DHT22;6125;59.628;17.852;2022-12-29T15:19:51;5.30;99.90
12123;DHT22;6125;59.628;17.852;2022-12-29T15:22:19;5.30;99.90
12123;DHT22;6125;59.628;17.852;2022-12-29T15:24:46;5.30;99.90
12123;DHT22;6125;59.628;17.852;2022-12-29T15:27:16;5.30;99.90
12123;DHT22;6125;59.628;17.852;2022-12-29T15:29:46;5.30;99.90
12123;DHT22;6125;59.628;17.852;2022-12-29T15:32:19;5.30;99.90
12123;DHT22;6125;59.628;17.852;2022-12-29T15:34:51;5.30;99.90
12123;DHT22;6125;59.628;17.852;2022-12-29T15:37:20;5.30;99.90
12123;DHT22;6125;59.628;17.852;2022-12-29T15:39:47;5.40;99.90
12123;DHT22;6125;59.628;17.852;2022-12-29T15:42:38;5.40;99.90
12123;DHT22;6125;59.628;17.852;2022-12-29T15:45:11;5.40;99.90
12123;DHT22;6125;59.628;17.852;2022-12-29T15:47:40;5.40;99.90
12123;DHT22;6125;59.628;17.852;2022-12-29T15:50:17;5.40;99.90
12123;DHT22;6125;59.628;17.852;2022-12-29T15:52:47;5.40;99.90
12123;DHT22;6125;59.628;17.852;2022-12-29T15:55:21;5.40;99.90
12123;DHT22;6125;59.628;17.852;2022-12-29T15:57:48;5.50;99.90
12123;DHT22;6125;59.628;17.852;2022-12-29T16:00:26;5.50;99.90
12123;DHT22;6125;59.628;17.852;2022-12-29T16:02:54;5.50;99.90
12123;DHT22;6125;59.628;17.852;2022-12-29T16:05:23;5.50;99.90
12123;DHT22;6125;59.628;17.852;2022-12-29T16:07:53;5.50;99.90
12123;DHT22;6125;59.628;17.852;2022-12-29T16:10:32;5.50;99.90
12123;DHT22;6125;59.628;17.852;2022-12-29T16:13:05;5.50;99.90
12123;DHT22;6125;59.628;17.852;2022-12-29T16:15:39;5.50;99.90
12123;DHT22;6125;59.628;17.852;2022-12-29T16:18:19;5.50;99.90
12123;DHT22;6125;59.628;17.852;2022-12-29T16:20:51;5.50;99.90
12123;DHT22;6125;59.628;17.852;2022-12-29T16:23:21;5.50;99.90
12123;DHT22;6125;59.628;17.852;2022-12-29T16:25:51;5.50;99.90